createdAt,value
2016-08-13T00:00:11.036Z,1011.84
2016-08-13T00:01:11.015Z,1011.83
2016-08-13T00:02:10.994Z,1011.85
2016-08-13T00:03:10.975Z,1011.86
2016-08-13T00:04:10.955Z,1011.87
2016-08-13T00:05:10.936Z,1011.86
2016-08-13T00:06:10.914Z,1011.86
2016-08-13T00:07:10.894Z,1011.87
2016-08-13T00:08:10.874Z,1011.89
2016-08-13T00:09:10.853Z,1011.84
2016-08-13T00:10:10.834Z,1011.88
2016-08-13T00:11:10.815Z,1011.84
2016-08-13T00:12:10.793Z,1011.86
2016-08-13T00:13:10.777Z,1011.83
2016-08-13T00:14:10.753Z,1011.82
2016-08-13T00:15:10.733Z,1011.83
2016-08-13T00:16:10.714Z,1011.81
2016-08-13T00:17:10.692Z,1011.84
2016-08-13T00:18:10.672Z,1011.88
2016-08-13T00:19:10.652Z,1011.85
2016-08-13T00:20:10.632Z,1011.81
2016-08-13T00:21:10.612Z,1011.83
2016-08-13T00:22:10.592Z,1011.82
2016-08-13T00:23:10.572Z,1011.82
2016-08-13T00:24:10.551Z,1011.89
2016-08-13T00:25:10.531Z,1011.85
2016-08-13T00:26:10.512Z,1011.79
2016-08-13T00:27:10.491Z,1011.85
2016-08-13T00:28:10.470Z,1011.84
2016-08-13T00:29:10.450Z,1011.82
2016-08-13T00:30:10.431Z,1011.82
2016-08-13T00:31:10.410Z,1011.87
2016-08-13T00:32:10.390Z,1011.8
2016-08-13T00:33:10.371Z,1011.79
2016-08-13T00:34:10.356Z,1011.8
2016-08-13T00:35:10.331Z,1011.8
2016-08-13T00:36:10.313Z,1011.78
2016-08-13T00:37:10.289Z,1011.75
2016-08-13T00:38:10.273Z,1011.74
2016-08-13T00:39:10.249Z,1011.71
2016-08-13T00:40:10.229Z,1011.75
2016-08-13T00:41:10.210Z,1011.75
2016-08-13T00:42:10.191Z,1011.73
2016-08-13T00:43:10.168Z,1011.71
2016-08-13T00:44:10.149Z,1011.72
2016-08-13T00:45:10.128Z,1011.74
2016-08-13T00:46:10.107Z,1011.72
2016-08-13T00:47:10.087Z,1011.72
2016-08-13T00:48:10.067Z,1011.69
2016-08-13T00:49:10.048Z,1011.68
2016-08-13T00:50:10.028Z,1011.64
2016-08-13T00:51:10.006Z,1011.63
2016-08-13T00:52:09.987Z,1011.66
2016-08-13T00:53:09.965Z,1011.66
2016-08-13T00:54:09.946Z,1011.65
2016-08-13T00:55:09.925Z,1011.62
2016-08-13T00:56:09.905Z,1011.6
2016-08-13T00:57:09.884Z,1011.64
2016-08-13T00:58:09.864Z,1011.61
2016-08-13T00:59:09.844Z,1011.6
2016-08-13T01:00:09.825Z,1011.64
2016-08-13T01:01:09.804Z,1011.65
2016-08-13T01:02:09.783Z,1011.6
2016-08-13T01:03:09.773Z,1011.59
2016-08-13T01:04:09.743Z,1011.6
2016-08-13T01:05:09.730Z,1011.57
2016-08-13T01:06:09.702Z,1011.58
2016-08-13T01:07:09.682Z,1011.58
2016-08-13T01:08:09.660Z,1011.57
2016-08-13T01:09:09.641Z,1011.56
2016-08-13T01:10:09.621Z,1011.59
2016-08-13T01:11:09.601Z,1011.57
2016-08-13T01:12:09.580Z,1011.58
2016-08-13T01:13:09.560Z,1011.6
2016-08-13T01:14:09.540Z,1011.59
2016-08-13T01:15:09.519Z,1011.58
2016-08-13T01:16:09.505Z,1011.58
2016-08-13T01:17:09.480Z,1011.59
2016-08-13T01:18:09.463Z,1011.59
2016-08-13T01:19:09.438Z,1011.59
2016-08-13T01:20:09.418Z,1011.53
2016-08-13T01:21:09.398Z,1011.56
2016-08-13T01:22:09.391Z,1011.55
2016-08-13T01:23:09.359Z,1011.53
2016-08-13T01:24:09.339Z,1011.52
2016-08-13T01:25:09.319Z,1011.53
2016-08-13T01:26:09.297Z,1011.49
2016-08-13T01:27:09.277Z,1011.46
2016-08-13T01:28:09.259Z,1011.47
2016-08-13T01:29:09.237Z,1011.51
2016-08-13T01:30:09.216Z,1011.5
2016-08-13T01:31:09.202Z,1011.44
2016-08-13T01:32:09.186Z,1011.45
2016-08-13T01:33:09.154Z,1011.42
2016-08-13T01:34:09.135Z,1011.4
2016-08-13T01:35:09.114Z,1011.41
2016-08-13T01:36:09.094Z,1011.39
2016-08-13T01:37:09.073Z,1011.41
2016-08-13T01:38:09.053Z,1011.38
2016-08-13T01:39:09.034Z,1011.38
2016-08-13T01:40:09.013Z,1011.36
2016-08-13T01:41:08.992Z,1011.32
2016-08-13T01:42:08.973Z,1011.31
2016-08-13T01:43:08.952Z,1011.31
2016-08-13T01:44:08.932Z,1011.33
2016-08-13T01:45:08.911Z,1011.3
2016-08-13T01:46:08.890Z,1011.32
2016-08-13T01:47:08.870Z,1011.31
2016-08-13T01:48:08.849Z,1011.3
2016-08-13T01:49:08.829Z,1011.29
2016-08-13T01:50:08.809Z,1011.31
2016-08-13T01:51:08.789Z,1011.34
2016-08-13T01:52:08.767Z,1011.36
2016-08-13T01:53:08.747Z,1011.33
2016-08-13T01:54:08.726Z,1011.35
2016-08-13T01:55:08.706Z,1011.31
2016-08-13T01:56:08.685Z,1011.29
2016-08-13T01:57:08.665Z,1011.29
2016-08-13T01:58:08.645Z,1011.26
2016-08-13T01:59:08.624Z,1011.25
2016-08-13T02:00:08.605Z,1011.27
2016-08-13T02:01:08.583Z,1011.23
2016-08-13T02:02:08.562Z,1011.25
2016-08-13T02:03:08.541Z,1011.23
2016-08-13T02:04:08.521Z,1011.21
2016-08-13T02:05:08.500Z,1011.21
2016-08-13T02:06:08.481Z,1011.22
2016-08-13T02:07:08.461Z,1011.18
2016-08-13T02:08:08.439Z,1011.2
2016-08-13T02:09:08.420Z,1011.19
2016-08-13T02:10:08.399Z,1011.23
2016-08-13T02:11:08.377Z,1011.23
2016-08-13T02:12:08.357Z,1011.22
2016-08-13T02:13:08.337Z,1011.2
2016-08-13T02:14:08.322Z,1011.17
2016-08-13T02:15:08.295Z,1011.18
2016-08-13T02:16:08.281Z,1011.17
2016-08-13T02:17:08.254Z,1011.14
2016-08-13T02:18:08.232Z,1011.14
2016-08-13T02:19:08.211Z,1011.16
2016-08-13T02:20:08.192Z,1011.18
2016-08-13T02:21:08.170Z,1011.2
2016-08-13T02:22:08.150Z,1011.13
2016-08-13T02:23:08.129Z,1011.21
2016-08-13T02:24:08.109Z,1011.17
2016-08-13T02:25:08.088Z,1011.19
2016-08-13T02:26:08.068Z,1011.18
2016-08-13T02:27:08.048Z,1011.21
2016-08-13T02:28:08.025Z,1011.19
2016-08-13T02:29:08.005Z,1011.19
2016-08-13T02:30:07.985Z,1011.15
2016-08-13T02:31:07.965Z,1011.18
2016-08-13T02:32:07.943Z,1011.13
2016-08-13T02:33:07.928Z,1011.17
2016-08-13T02:34:07.901Z,1011.16
2016-08-13T02:35:07.880Z,1011.2
2016-08-13T02:36:07.860Z,1011.16
2016-08-13T02:37:07.840Z,1011.19
2016-08-13T02:38:07.830Z,1011.14
2016-08-13T02:39:07.799Z,1011.16
2016-08-13T02:40:07.777Z,1011.16
2016-08-13T02:41:07.757Z,1011.14
2016-08-13T02:42:07.736Z,1011.17
2016-08-13T02:43:07.716Z,1011.17
2016-08-13T02:44:07.694Z,1011.15
2016-08-13T02:45:07.672Z,1011.18
2016-08-13T02:46:07.653Z,1011.13
2016-08-13T02:47:07.631Z,1011.15
2016-08-13T02:48:07.611Z,1011.14
2016-08-13T02:49:07.591Z,1011.1
2016-08-13T02:50:07.570Z,1011.15
2016-08-13T02:51:07.550Z,1011.11
2016-08-13T02:52:07.527Z,1011.15
2016-08-13T02:53:07.515Z,1011.11
2016-08-13T02:54:07.488Z,1011.08
2016-08-13T02:55:07.467Z,1011.11
2016-08-13T02:56:07.445Z,1011.06
2016-08-13T02:57:07.425Z,1011.07
2016-08-13T02:58:07.405Z,1011.05
2016-08-13T02:59:07.384Z,1011.08
2016-08-13T03:00:07.364Z,1011.07
2016-08-13T03:01:07.342Z,1011.1
2016-08-13T03:02:07.322Z,1011.11
2016-08-13T03:03:07.300Z,1011.14
2016-08-13T03:04:07.280Z,1011.11
2016-08-13T03:05:07.259Z,1011.13
2016-08-13T03:06:07.238Z,1011.13
2016-08-13T03:07:07.218Z,1011.15
2016-08-13T03:08:07.198Z,1011.12
2016-08-13T03:09:07.176Z,1011.14
2016-08-13T03:10:07.156Z,1011.1
2016-08-13T03:11:07.136Z,1011.14
2016-08-13T03:12:07.114Z,1011.16
2016-08-13T03:13:07.093Z,1011.16
2016-08-13T03:14:07.073Z,1011.18
2016-08-13T03:15:07.053Z,1011.16
2016-08-13T03:16:07.031Z,1011.15
2016-08-13T03:17:07.011Z,1011.16
2016-08-13T03:18:06.991Z,1011.12
2016-08-13T03:19:06.969Z,1011.15
2016-08-13T03:20:06.948Z,1011.16
2016-08-13T03:21:06.928Z,1011.12
2016-08-13T03:22:06.909Z,1011.17
2016-08-13T03:23:06.887Z,1011.1
2016-08-13T03:24:06.866Z,1011.07
2016-08-13T03:25:06.846Z,1011.09
2016-08-13T03:26:06.825Z,1011.11
2016-08-13T03:27:06.804Z,1011.12
2016-08-13T03:28:06.784Z,1011.11
2016-08-13T03:29:06.763Z,1011.14
2016-08-13T03:30:06.743Z,1011.07
2016-08-13T03:31:06.722Z,1011.07
2016-08-13T03:32:06.701Z,1011.07
2016-08-13T03:33:06.683Z,1011.09
2016-08-13T03:34:06.662Z,1011.07
2016-08-13T03:35:06.644Z,1011.07
2016-08-13T03:36:06.619Z,1011
2016-08-13T03:37:06.599Z,1011.02
2016-08-13T03:38:06.579Z,1011.04
2016-08-13T03:39:06.556Z,1011.04
2016-08-13T03:40:06.537Z,1011.04
2016-08-13T03:41:06.516Z,1010.99
2016-08-13T03:42:06.517Z,1010.99
2016-08-13T03:43:06.480Z,1010.97
2016-08-13T03:44:06.454Z,1010.98
2016-08-13T03:45:06.436Z,1011.04
2016-08-13T03:46:06.413Z,1011.04
2016-08-13T03:47:06.392Z,1011.05
2016-08-13T03:48:06.379Z,1011.01
2016-08-13T03:49:06.350Z,1010.98
2016-08-13T03:50:06.330Z,1011.02
2016-08-13T03:51:06.310Z,1010.97
2016-08-13T03:52:06.289Z,1010.98
2016-08-13T03:53:06.268Z,1010.96
2016-08-13T03:54:06.248Z,1010.92
2016-08-13T03:55:06.228Z,1010.97
2016-08-13T03:56:06.206Z,1010.91
2016-08-13T03:57:06.186Z,1010.91
2016-08-13T03:58:06.166Z,1010.89
2016-08-13T03:59:06.144Z,1010.93
2016-08-13T04:00:06.123Z,1010.9
2016-08-13T04:01:06.109Z,1010.88
2016-08-13T04:02:06.083Z,1010.92
2016-08-13T04:03:06.061Z,1010.9
2016-08-13T04:04:06.042Z,1010.87
2016-08-13T04:05:06.021Z,1010.86
2016-08-13T04:06:06.001Z,1010.83
2016-08-13T04:07:05.982Z,1010.84
2016-08-13T04:08:05.958Z,1010.86
2016-08-13T04:09:05.939Z,1010.89
2016-08-13T04:10:05.918Z,1010.9
2016-08-13T04:11:05.896Z,1010.93
2016-08-13T04:12:05.877Z,1010.9
2016-08-13T04:13:05.856Z,1010.9
2016-08-13T04:14:05.835Z,1010.96
2016-08-13T04:15:05.814Z,1010.88
2016-08-13T04:16:05.795Z,1010.92
2016-08-13T04:17:05.773Z,1010.93
2016-08-13T04:18:05.751Z,1010.94
2016-08-13T04:19:05.733Z,1010.9
2016-08-13T04:20:05.713Z,1010.91
2016-08-13T04:21:05.691Z,1010.89
2016-08-13T04:22:05.671Z,1010.94
2016-08-13T04:23:05.650Z,1010.95
2016-08-13T04:24:05.629Z,1010.96
2016-08-13T04:25:05.609Z,1010.93
2016-08-13T04:26:05.588Z,1010.94
2016-08-13T04:27:05.569Z,1010.99
2016-08-13T04:28:05.548Z,1010.9
2016-08-13T04:29:05.527Z,1010.93
2016-08-13T04:30:05.507Z,1010.97
2016-08-13T04:31:05.487Z,1010.97
2016-08-13T04:32:05.467Z,1010.94
2016-08-13T04:33:05.447Z,1010.95
2016-08-13T04:34:05.432Z,1011
2016-08-13T04:35:05.407Z,1010.99
2016-08-13T04:36:05.385Z,1011
2016-08-13T04:37:05.366Z,1011
2016-08-13T04:38:05.346Z,1010.97
2016-08-13T04:39:05.325Z,1011.02
2016-08-13T04:40:05.304Z,1011
2016-08-13T04:41:05.284Z,1010.97
2016-08-13T04:42:05.263Z,1010.98
2016-08-13T04:43:05.250Z,1010.98
2016-08-13T04:44:05.223Z,1011.02
2016-08-13T04:45:05.202Z,1010.96
2016-08-13T04:46:05.183Z,1011.04
2016-08-13T04:47:05.162Z,1011.03
2016-08-13T04:48:05.141Z,1010.99
2016-08-13T04:49:05.123Z,1011.01
2016-08-13T04:50:05.101Z,1010.96
2016-08-13T04:51:05.080Z,1010.97
2016-08-13T04:52:05.061Z,1010.97
2016-08-13T04:53:05.040Z,1010.95
2016-08-13T04:54:05.019Z,1010.9
2016-08-13T04:55:05.000Z,1010.91
2016-08-13T04:56:04.979Z,1010.94
2016-08-13T04:57:04.959Z,1010.94
2016-08-13T04:58:04.939Z,1010.92
2016-08-13T04:59:04.918Z,1010.92
2016-08-13T05:00:04.898Z,1010.87
2016-08-13T05:01:04.879Z,1010.92
2016-08-13T05:02:04.857Z,1010.9
2016-08-13T05:03:04.839Z,1010.91
2016-08-13T05:04:04.818Z,1010.88
2016-08-13T05:05:04.796Z,1010.91
2016-08-13T05:06:04.777Z,1010.95
2016-08-13T05:07:04.757Z,1011.01
2016-08-13T05:08:04.738Z,1010.99
2016-08-13T05:09:04.716Z,1010.95
2016-08-13T05:10:04.695Z,1010.99
2016-08-13T05:11:04.681Z,1011
2016-08-13T05:12:04.657Z,1011.06
2016-08-13T05:13:04.635Z,1011.04
2016-08-13T05:14:04.615Z,1011.07
2016-08-13T05:15:04.595Z,1011.07
2016-08-13T05:16:04.575Z,1011.1
2016-08-13T05:17:04.556Z,1011.09
2016-08-13T05:18:04.536Z,1011.1
2016-08-13T05:19:04.515Z,1011.09
2016-08-13T05:20:04.494Z,1011.11
2016-08-13T05:21:04.474Z,1011.07
2016-08-13T05:22:04.454Z,1011.14
2016-08-13T05:23:04.435Z,1011.12
2016-08-13T05:24:04.415Z,1011.19
2016-08-13T05:25:04.395Z,1011.22
2016-08-13T05:26:04.375Z,1011.1
2016-08-13T05:27:04.354Z,1011.11
2016-08-13T05:28:04.334Z,1011.12
2016-08-13T05:29:04.330Z,1011.08
2016-08-13T05:30:04.295Z,1011.07
2016-08-13T05:31:04.275Z,1011.14
2016-08-13T05:32:04.254Z,1011.18
2016-08-13T05:33:04.235Z,1011.16
2016-08-13T05:34:04.267Z,1011.14
2016-08-13T05:35:04.248Z,1011.15
2016-08-13T05:36:04.278Z,1011.17
2016-08-13T05:37:04.209Z,1011.2
2016-08-13T05:38:04.186Z,1011.18
2016-08-13T05:39:04.168Z,1011.15
2016-08-13T05:40:04.149Z,1011.17
2016-08-13T05:41:04.127Z,1011.12
2016-08-13T05:42:04.108Z,1011.21
2016-08-13T05:43:04.089Z,1011.18
2016-08-13T05:44:04.069Z,1011.18
2016-08-13T05:45:04.048Z,1011.23
2016-08-13T05:46:04.028Z,1011.25
2016-08-13T05:47:04.010Z,1011.27
2016-08-13T05:48:03.990Z,1011.28
2016-08-13T05:49:03.969Z,1011.28
2016-08-13T05:50:03.896Z,1011.22
2016-08-13T05:51:03.932Z,1011.27
2016-08-13T05:52:03.911Z,1011.35
2016-08-13T05:53:03.891Z,1011.24
2016-08-13T05:54:03.887Z,1011.25
2016-08-13T05:55:03.851Z,1011.24
2016-08-13T05:56:03.780Z,1011.24
2016-08-13T05:57:03.759Z,1011.2
2016-08-13T05:58:03.739Z,1011.14
2016-08-13T05:59:03.720Z,1011.15
2016-08-13T06:00:03.700Z,1011.05
2016-08-13T06:01:03.681Z,1011.18
2016-08-13T06:02:03.661Z,1011.1
2016-08-13T06:03:03.642Z,1011.22
2016-08-13T06:04:03.623Z,1011.15
2016-08-13T06:05:03.603Z,1011.14
2016-08-13T06:06:03.584Z,1011.21
2016-08-13T06:07:03.565Z,1011.15
2016-08-13T06:08:03.545Z,1011.22
2016-08-13T06:09:03.527Z,1011.28
2016-08-13T06:10:03.510Z,1011.2
2016-08-13T06:11:03.489Z,1011.23
2016-08-13T06:12:03.473Z,1011.26
2016-08-13T06:13:03.453Z,1011.23
2016-08-13T06:14:03.435Z,1011.28
2016-08-13T06:15:03.416Z,1011.27
2016-08-13T06:16:03.399Z,1011.18
2016-08-13T06:17:03.381Z,1011.2
2016-08-13T06:18:03.362Z,1011.11
2016-08-13T06:19:03.346Z,1011.03
2016-08-13T06:20:03.328Z,1011.17
2016-08-13T06:21:03.311Z,1011.19
2016-08-13T06:22:03.294Z,1011.09
2016-08-13T06:23:03.276Z,1011.1
2016-08-13T06:24:03.261Z,1011.05
2016-08-13T06:25:03.243Z,1011.08
2016-08-13T06:26:03.225Z,1011.15
2016-08-13T06:27:03.209Z,1011.09
2016-08-13T06:28:03.192Z,1011.13
2016-08-13T06:29:03.176Z,1011.17
2016-08-13T06:30:03.158Z,1011.21
2016-08-13T06:31:03.141Z,1011.11
2016-08-13T06:32:03.124Z,1011.14
2016-08-13T06:33:03.108Z,1011.1
2016-08-13T06:34:03.090Z,1011.13
2016-08-13T06:35:03.073Z,1011.18
2016-08-13T06:36:03.057Z,1011.19
2016-08-13T06:37:03.038Z,1011.23
2016-08-13T06:38:03.023Z,1011.3
2016-08-13T06:39:03.010Z,1011.21
2016-08-13T06:40:02.988Z,1011.26
2016-08-13T06:41:02.973Z,1011.25
2016-08-13T06:42:02.956Z,1011.19
2016-08-13T06:43:02.942Z,1011.22
2016-08-13T06:44:02.923Z,1011.25
2016-08-13T06:45:02.909Z,1011.24
2016-08-13T06:46:02.892Z,1011.25
2016-08-13T06:47:02.876Z,1011.24
2016-08-13T06:48:02.858Z,1011.25
2016-08-13T06:49:02.843Z,1011.24
2016-08-13T06:50:02.828Z,1011.15
2016-08-13T06:51:02.812Z,1011.21
2016-08-13T06:52:02.796Z,1011.28
2016-08-13T06:53:02.781Z,1011.32
2016-08-13T06:54:02.766Z,1011.36
2016-08-13T06:55:02.750Z,1011.29
2016-08-13T06:56:02.734Z,1011.29
2016-08-13T06:57:02.720Z,1011.26
2016-08-13T06:58:02.705Z,1011.24
2016-08-13T06:59:02.691Z,1011.22
2016-08-13T07:00:02.676Z,1011.24
2016-08-13T07:01:02.661Z,1011.3
2016-08-13T07:02:02.644Z,1011.34
2016-08-13T07:03:02.630Z,1011.26
2016-08-13T07:04:02.615Z,1011.3
2016-08-13T07:05:02.600Z,1011.31
2016-08-13T07:06:02.584Z,1011.29
2016-08-13T07:07:02.569Z,1011.35
2016-08-13T07:08:02.554Z,1011.3
2016-08-13T07:09:02.540Z,1011.25
2016-08-13T07:10:02.524Z,1011.26
2016-08-13T07:11:02.508Z,1011.28
2016-08-13T07:12:02.495Z,1011.31
2016-08-13T07:13:02.478Z,1011.26
2016-08-13T07:14:02.463Z,1011.29
2016-08-13T07:15:02.449Z,1011.21
2016-08-13T07:16:02.436Z,1011.35
2016-08-13T07:17:02.418Z,1011.25
2016-08-13T07:18:02.405Z,1011.28
2016-08-13T07:19:02.390Z,1011.29
2016-08-13T07:20:02.375Z,1011.28
2016-08-13T07:21:02.360Z,1011.2
2016-08-13T07:22:02.347Z,1011.3
2016-08-13T07:23:02.331Z,1011.34
2016-08-13T07:24:02.317Z,1011.28
2016-08-13T07:25:02.303Z,1011.31
2016-08-13T07:26:02.289Z,1011.29
2016-08-13T07:27:02.275Z,1011.26
2016-08-13T07:28:02.260Z,1011.37
2016-08-13T07:29:02.247Z,1011.27
2016-08-13T07:30:02.234Z,1011.4
2016-08-13T07:31:02.219Z,1011.32
2016-08-13T07:32:02.205Z,1011.31
2016-08-13T07:33:02.191Z,1011.33
2016-08-13T07:34:02.177Z,1011.27
2016-08-13T07:35:02.165Z,1011.23
2016-08-13T07:36:02.167Z,1011.01
2016-08-13T07:37:02.188Z,1011.3
2016-08-13T07:38:02.123Z,1011.32
2016-08-13T07:39:02.109Z,1011.18
2016-08-13T07:40:02.097Z,1011.23
2016-08-13T07:41:02.084Z,1011.25
2016-08-13T07:42:02.069Z,1011.28
2016-08-13T07:43:02.057Z,1011.25
2016-08-13T07:44:02.043Z,1011.25
2016-08-13T07:45:02.031Z,1011.23
2016-08-13T07:46:02.016Z,1011.19
2016-08-13T07:47:02.026Z,1011.19
2016-08-13T07:48:02.033Z,1011.22
2016-08-13T07:49:01.983Z,1011.2
2016-08-13T07:50:02.019Z,1011.18
2016-08-13T07:51:01.951Z,1011.2
2016-08-13T07:52:01.938Z,1011.17
2016-08-13T07:53:01.922Z,1011.23
2016-08-13T07:54:01.911Z,1011.23
2016-08-13T07:55:01.897Z,1011.24
2016-08-13T07:56:01.883Z,1011.22
2016-08-13T07:57:01.871Z,1011.31
2016-08-13T07:58:01.860Z,1011.28
2016-08-13T07:59:01.843Z,1011.22
2016-08-13T08:00:01.837Z,1011.26
2016-08-13T08:01:01.818Z,1011.24
2016-08-13T08:02:01.805Z,1011.23
2016-08-13T08:03:01.793Z,1011.19
2016-08-13T08:04:01.780Z,1011.27
2016-08-13T08:05:01.767Z,1011.18
2016-08-13T08:06:01.756Z,1011.2
2016-08-13T08:07:01.748Z,1011.2
2016-08-13T08:08:01.731Z,1011.21
2016-08-13T08:09:01.719Z,1011.13
2016-08-13T08:10:01.709Z,1011.09
2016-08-13T08:11:01.698Z,1011.06
2016-08-13T08:12:01.686Z,1011.05
2016-08-13T08:13:01.674Z,1011.11
2016-08-13T08:14:01.663Z,1011.08
2016-08-13T08:15:01.651Z,1011.09
2016-08-13T08:16:01.642Z,1011.08
2016-08-13T08:17:01.631Z,1011.11
2016-08-13T08:18:01.620Z,1011.1
2016-08-13T08:19:01.611Z,1011.09
2016-08-13T08:20:01.600Z,1011.11
2016-08-13T08:21:01.590Z,1011.14
2016-08-13T08:22:01.580Z,1011.14
2016-08-13T08:23:01.569Z,1011.11
2016-08-13T08:24:01.560Z,1011.1
2016-08-13T08:25:01.549Z,1011.02
2016-08-13T08:26:01.539Z,1011.13
2016-08-13T08:27:01.529Z,1011.08
2016-08-13T08:28:01.520Z,1011.08
2016-08-13T08:29:01.511Z,1011
2016-08-13T08:30:01.501Z,1011
2016-08-13T08:31:01.491Z,1011.01
2016-08-13T08:32:01.482Z,1011.04
2016-08-13T08:33:01.472Z,1010.97
2016-08-13T08:34:01.464Z,1011
2016-08-13T08:35:01.458Z,1010.96
2016-08-13T08:36:01.450Z,1011.01
2016-08-13T08:37:01.435Z,1010.99
2016-08-13T08:38:01.430Z,1011.01
2016-08-13T08:39:01.417Z,1011
2016-08-13T08:40:01.423Z,1011.07
2016-08-13T08:41:01.398Z,1011.09
2016-08-13T08:42:01.388Z,1011.06
2016-08-13T08:43:01.379Z,1010.96
2016-08-13T08:44:01.371Z,1011.08
2016-08-13T08:45:01.361Z,1011.1
2016-08-13T08:46:01.368Z,1011.14
2016-08-13T08:47:01.341Z,1011.14
2016-08-13T08:48:01.331Z,1011.11
2016-08-13T08:49:01.322Z,1011.07
2016-08-13T08:50:01.313Z,1011.07
2016-08-13T08:51:01.303Z,1011.15
2016-08-13T08:52:01.292Z,1011.03
2016-08-13T08:53:01.284Z,1011.05
2016-08-13T08:54:01.272Z,1010.97
2016-08-13T08:55:01.262Z,1010.98
2016-08-13T08:56:01.251Z,1011.01
2016-08-13T08:57:01.248Z,1011.03
2016-08-13T08:58:01.230Z,1011.06
2016-08-13T08:59:01.218Z,1011.08
2016-08-13T09:00:01.207Z,1011.06
2016-08-13T09:01:01.197Z,1011.08
2016-08-13T09:02:01.187Z,1011.06
2016-08-13T09:03:01.172Z,1011.09
2016-08-13T09:04:01.161Z,1011.09
2016-08-13T09:05:01.151Z,1011.06
2016-08-13T09:06:01.139Z,1011.1
2016-08-13T09:07:01.125Z,1011.13
2016-08-13T09:08:01.114Z,1011.14
2016-08-13T09:09:01.102Z,1011.07
2016-08-13T09:10:01.089Z,1011.12
2016-08-13T09:11:01.079Z,1011.23
2016-08-13T09:12:01.067Z,1011.27
2016-08-13T09:13:01.055Z,1011.23
2016-08-13T09:14:01.045Z,1011.25
2016-08-13T09:15:01.033Z,1011.24
2016-08-13T09:16:01.022Z,1011.27
2016-08-13T09:17:01.012Z,1011.27
2016-08-13T09:18:01.004Z,1011.22
2016-08-13T09:19:00.989Z,1011.22
2016-08-13T09:20:00.981Z,1011.26
2016-08-13T09:21:00.968Z,1011.26
2016-08-13T09:22:00.959Z,1011.27
2016-08-13T09:23:00.949Z,1011.29
2016-08-13T09:24:00.939Z,1011.3
2016-08-13T09:25:00.928Z,1011.3
2016-08-13T09:26:00.919Z,1011.25
2016-08-13T09:27:00.909Z,1011.31
2016-08-13T09:28:00.899Z,1011.26
2016-08-13T09:29:00.889Z,1011.36
2016-08-13T09:30:00.879Z,1011.39
2016-08-13T09:31:00.871Z,1011.34
2016-08-13T09:32:00.859Z,1011.29
2016-08-13T09:33:00.849Z,1011.34
2016-08-13T09:34:00.841Z,1011.31
2016-08-13T09:35:00.828Z,1011.38
2016-08-13T09:36:00.819Z,1011.39
2016-08-13T09:37:00.808Z,1011.33
2016-08-13T09:38:00.797Z,1011.37
2016-08-13T09:39:00.785Z,1011.47
2016-08-13T09:40:00.775Z,1011.39
2016-08-13T09:41:00.764Z,1011.42
2016-08-13T09:42:00.754Z,1011.41
2016-08-13T09:43:00.743Z,1011.44
2016-08-13T09:44:00.732Z,1011.53
2016-08-13T09:45:00.722Z,1011.41
2016-08-13T09:46:00.710Z,1011.43
2016-08-13T09:47:00.703Z,1011.46
2016-08-13T09:48:00.689Z,1011.43
2016-08-13T09:49:00.689Z,1011.32
2016-08-13T09:50:00.665Z,1011.33
2016-08-13T09:51:00.654Z,1011.32
2016-08-13T09:52:00.643Z,1011.28
2016-08-13T09:53:00.632Z,1011.36
2016-08-13T09:54:00.627Z,1011.39
2016-08-13T09:55:00.610Z,1011.31
2016-08-13T09:56:00.599Z,1011.33
2016-08-13T09:57:00.588Z,1011.29
2016-08-13T09:58:00.578Z,1011.31
2016-08-13T09:59:00.565Z,1011.24
2016-08-13T10:00:00.555Z,1011.33
2016-08-13T10:01:00.542Z,1011.27
2016-08-13T10:02:00.531Z,1011.18
2016-08-13T10:03:00.520Z,1011.05
2016-08-13T10:04:00.508Z,1011.24
2016-08-13T10:05:00.496Z,1011.22
2016-08-13T10:06:00.485Z,1011.22
2016-08-13T10:07:00.473Z,1011.17
2016-08-13T10:08:00.462Z,1011.19
2016-08-13T10:09:00.450Z,1011.1
2016-08-13T10:10:00.441Z,1011.01
2016-08-13T10:11:00.433Z,1011.02
2016-08-13T10:12:00.414Z,1011.1
2016-08-13T10:13:00.401Z,1011.1
2016-08-13T10:14:00.390Z,1011.1
2016-08-13T10:15:00.379Z,1011.08
2016-08-13T10:16:00.366Z,1011.19
2016-08-13T10:17:00.354Z,1011.15
2016-08-13T10:18:00.343Z,1011.19
2016-08-13T10:19:00.330Z,1011.15
2016-08-13T10:20:00.318Z,1011.11
2016-08-13T10:21:00.307Z,1011.22
2016-08-13T10:22:00.292Z,1011.17
2016-08-13T10:23:00.280Z,1011.24
2016-08-13T10:24:00.268Z,1011.22
2016-08-13T10:25:00.255Z,1011.19
2016-08-13T10:26:00.244Z,1011.24
2016-08-13T10:27:00.232Z,1011.08
2016-08-13T10:28:00.218Z,1011.18
2016-08-13T10:29:00.206Z,1011.21
2016-08-13T10:30:00.194Z,1011.13
2016-08-13T10:31:00.181Z,1011.13
2016-08-13T10:32:00.169Z,1011.19
2016-08-13T10:33:00.156Z,1011.13
2016-08-13T10:34:00.143Z,1011.17
2016-08-13T10:35:00.132Z,1011.17
2016-08-13T10:36:00.119Z,1011.22
2016-08-13T10:37:00.109Z,1011.19
2016-08-13T10:38:00.096Z,1011.21
2016-08-13T10:39:00.084Z,1011.22
2016-08-13T10:40:00.072Z,1011.18
2016-08-13T10:41:00.211Z,1011.18
2016-08-13T10:42:00.049Z,1011.15
2016-08-13T10:43:00.039Z,1011.15
2016-08-13T10:44:00.026Z,1011.16
2016-08-13T10:45:00.013Z,1011.15
2016-08-13T10:46:00.002Z,1011.09
2016-08-13T10:46:59.991Z,1011.09
2016-08-13T10:47:59.980Z,1011.09
2016-08-13T10:48:59.968Z,1011.11
2016-08-13T10:49:59.958Z,1011.2
2016-08-13T10:50:59.946Z,1011.3
2016-08-13T10:51:59.935Z,1011.31
2016-08-13T10:52:59.925Z,1011.28
2016-08-13T10:53:59.913Z,1011.21
2016-08-13T10:54:59.903Z,1011.2
2016-08-13T10:55:59.892Z,1011.31
2016-08-13T10:56:59.888Z,1011.21
2016-08-13T10:57:59.870Z,1011.25
2016-08-13T10:58:59.864Z,1011.22
2016-08-13T10:59:59.850Z,1011.29
2016-08-13T11:00:59.833Z,1011.27
2016-08-13T11:01:59.826Z,1011.24
2016-08-13T11:02:59.809Z,1011.29
2016-08-13T11:03:59.805Z,1011.24
2016-08-13T11:04:59.787Z,1011.18
2016-08-13T11:05:59.774Z,1011.14
2016-08-13T11:06:59.762Z,1011.21
2016-08-13T11:07:59.751Z,1011.29
2016-08-13T11:08:59.738Z,1011.35
2016-08-13T11:09:59.726Z,1011.26
2016-08-13T11:10:59.725Z,1011.22
2016-08-13T11:11:59.701Z,1011.3
2016-08-13T11:12:59.689Z,1011.23
2016-08-13T11:13:59.676Z,1011.22
2016-08-13T11:14:59.664Z,1011.3
2016-08-13T11:15:59.652Z,1011.27
2016-08-13T11:16:59.639Z,1011.29
2016-08-13T11:17:59.626Z,1011.25
2016-08-13T11:18:59.614Z,1011.35
2016-08-13T11:19:59.602Z,1011.29
2016-08-13T11:20:59.590Z,1011.29
2016-08-13T11:21:59.577Z,1011.18
2016-08-13T11:22:59.563Z,1011.26
2016-08-13T11:23:59.551Z,1011.14
2016-08-13T11:24:59.538Z,1011.19
2016-08-13T11:25:59.526Z,1011.22
2016-08-13T11:26:59.519Z,1011.24
2016-08-13T11:27:59.502Z,1011.22
2016-08-13T11:28:59.496Z,1011.3
2016-08-13T11:29:59.477Z,1011.45
2016-08-13T11:30:59.465Z,1011.33
2016-08-13T11:31:59.453Z,1011.31
2016-08-13T11:32:59.441Z,1011.31
2016-08-13T11:33:59.482Z,1011.33
2016-08-13T11:34:59.416Z,1011.34
2016-08-13T11:35:59.405Z,1011.29
2016-08-13T11:36:59.393Z,1011.35
2016-08-13T11:37:59.382Z,1011.33
2016-08-13T11:38:59.370Z,1011.37
2016-08-13T11:39:59.357Z,1011.39
2016-08-13T11:40:59.345Z,1011.41
2016-08-13T11:41:59.333Z,1011.36
2016-08-13T11:42:59.322Z,1011.38
2016-08-13T11:43:59.309Z,1011.36
2016-08-13T11:44:59.296Z,1011.34
2016-08-13T11:45:59.285Z,1011.35
2016-08-13T11:46:59.271Z,1011.34
2016-08-13T11:47:59.260Z,1011.35
2016-08-13T11:48:59.603Z,1011.38
2016-08-13T11:49:59.237Z,1011.39
2016-08-13T11:50:59.223Z,1011.38
2016-08-13T11:51:59.215Z,1011.41
2016-08-13T11:52:59.199Z,1011.43
2016-08-13T11:53:59.188Z,1011.41
2016-08-13T11:54:59.175Z,1011.36
2016-08-13T11:55:59.163Z,1011.39
2016-08-13T11:56:59.151Z,1011.5
2016-08-13T11:57:59.139Z,1011.41
2016-08-13T11:58:59.128Z,1011.42
2016-08-13T11:59:59.117Z,1011.49
2016-08-13T12:00:59.103Z,1011.42
2016-08-13T12:01:59.091Z,1011.42
2016-08-13T12:02:59.080Z,1011.39
2016-08-13T12:03:59.068Z,1011.42
2016-08-13T12:04:59.059Z,1011.54
2016-08-13T12:05:59.046Z,1011.41
2016-08-13T12:06:59.033Z,1011.5
2016-08-13T12:07:59.021Z,1011.46